sensor_id;sensor_type;location;lat;lon;timestamp;temperature;humidity
32706;DHT22;19094;50.972;3.538;2023-12-28T00:00:30;17.80;59.80
32706;DHT22;19094;50.972;3.538;2023-12-28T00:02:56;17.80;59.70
32706;DHT22;19094;50.972;3.538;2023-12-28T00:05:21;17.80;59.90
32706;DHT22;19094;50.972;3.538;2023-12-28T00:07:47;17.80;59.90
32706;DHT22;19094;50.972;3.538;2023-12-28T00:10:13;17.80;60.00
32706;DHT22;19094;50.972;3.538;2023-12-28T00:12:38;17.80;59.90
32706;DHT22;19094;50.972;3.538;2023-12-28T00:15:04;17.90;59.80
32706;DHT22;19094;50.972;3.538;2023-12-28T00:17:30;17.90;59.80
32706;DHT22;19094;50.972;3.538;2023-12-28T00:19:56;18.00;60.20
32706;DHT22;19094;50.972;3.538;2023-12-28T00:22:22;17.90;59.70
32706;DHT22;19094;50.972;3.538;2023-12-28T00:24:47;18.00;59.60
32706;DHT22;19094;50.972;3.538;2023-12-28T00:27:13;18.00;59.90
32706;DHT22;19094;50.972;3.538;2023-12-28T00:29:39;18.00;59.80
32706;DHT22;19094;50.972;3.538;2023-12-28T00:32:07;17.90;59.90
32706;DHT22;19094;50.972;3.538;2023-12-28T00:34:33;18.00;59.80
32706;DHT22;19094;50.972;3.538;2023-12-28T00:36:59;18.10;59.80
32706;DHT22;19094;50.972;3.538;2023-12-28T00:39:24;18.00;59.80
32706;DHT22;19094;50.972;3.538;2023-12-28T00:41:50;18.00;59.90
32706;DHT22;19094;50.972;3.538;2023-12-28T00:44:16;18.00;59.70
32706;DHT22;19094;50.972;3.538;2023-12-28T00:46:41;18.00;59.70
32706;DHT22;19094;50.972;3.538;2023-12-28T00:49:07;18.00;59.80
32706;DHT22;19094;50.972;3.538;2023-12-28T00:51:33;18.00;59.90
32706;DHT22;19094;50.972;3.538;2023-12-28T00:53:59;18.20;59.80
32706;DHT22;19094;50.972;3.538;2023-12-28T00:56:25;18.10;59.90
32706;DHT22;19094;50.972;3.538;2023-12-28T00:58:50;18.20;59.70
32706;DHT22;19094;50.972;3.538;2023-12-28T01:01:16;18.20;59.50
32706;DHT22;19094;50.972;3.538;2023-12-28T01:03:42;18.20;59.80
32706;DHT22;19094;50.972;3.538;2023-12-28T01:06:07;18.20;59.70
32706;DHT22;19094;50.972;3.538;2023-12-28T01:08:33;18.20;59.70
32706;DHT22;19094;50.972;3.538;2023-12-28T01:10:59;18.20;59.50
32706;DHT22;19094;50.972;3.538;2023-12-28T01:13:25;18.30;59.60
32706;DHT22;19094;50.972;3.538;2023-12-28T01:15:51;18.30;59.50
32706;DHT22;19094;50.972;3.538;2023-12-28T01:18:17;18.30;59.50
32706;DHT22;19094;50.972;3.538;2023-12-28T01:20:42;18.30;59.70
32706;DHT22;19094;50.972;3.538;2023-12-28T01:23:08;18.30;59.50
32706;DHT22;19094;50.972;3.538;2023-12-28T01:25:34;18.20;59.70
32706;DHT22;19094;50.972;3.538;2023-12-28T01:28:01;18.20;59.80
32706;DHT22;19094;50.972;3.538;2023-12-28T01:30:26;18.30;59.70
32706;DHT22;19094;50.972;3.538;2023-12-28T01:32:52;18.20;60.00
32706;DHT22;19094;50.972;3.538;2023-12-28T01:35:18;18.20;59.90
32706;DHT22;19094;50.972;3.538;2023-12-28T01:37:43;18.20;59.80
32706;DHT22;19094;50.972;3.538;2023-12-28T01:40:09;18.20;59.90
32706;DHT22;19094;50.972;3.538;2023-12-28T01:42:35;18.30;59.80
32706;DHT22;19094;50.972;3.538;2023-12-28T01:45:01;18.20;59.80
32706;DHT22;19094;50.972;3.538;2023-12-28T01:47:27;18.20;60.00
32706;DHT22;19094;50.972;3.538;2023-12-28T01:49:54;18.20;60.00
32706;DHT22;19094;50.972;3.538;2023-12-28T01:52:21;18.20;59.90
32706;DHT22;19094;50.972;3.538;2023-12-28T01:54:46;18.20;60.00
32706;DHT22;19094;50.972;3.538;2023-12-28T01:57:13;18.20;59.90
32706;DHT22;19094;50.972;3.538;2023-12-28T01:59:40;18.30;59.90
32706;DHT22;19094;50.972;3.538;2023-12-28T02:02:07;18.30;59.80
32706;DHT22;19094;50.972;3.538;2023-12-28T02:04:33;18.20;60.00
32706;DHT22;19094;50.972;3.538;2023-12-28T02:07:00;18.20;60.00
32706;DHT22;19094;50.972;3.538;2023-12-28T02:09:26;18.20;60.10
32706;DHT22;19094;50.972;3.538;2023-12-28T02:11:53;18.20;60.00
32706;DHT22;19094;50.972;3.538;2023-12-28T02:14:20;18.20;60.10
32706;DHT22;19094;50.972;3.538;2023-12-28T02:17:01;18.30;60.20
32706;DHT22;19094;50.972;3.538;2023-12-28T02:22:18;18.20;60.00
32706;DHT22;19094;50.972;3.538;2023-12-28T02:25:04;18.10;60.30
32706;DHT22;19094;50.972;3.538;2023-12-28T02:27:30;18.10;60.00
32706;DHT22;19094;50.972;3.538;2023-12-28T02:29:56;18.10;60.20
32706;DHT22;19094;50.972;3.538;2023-12-28T02:32:36;18.10;60.10
32706;DHT22;19094;50.972;3.538;2023-12-28T02:35:12;18.10;60.00
32706;DHT22;19094;50.972;3.538;2023-12-28T02:37:39;18.10;60.10
32706;DHT22;19094;50.972;3.538;2023-12-28T02:40:06;18.10;60.20
32706;DHT22;19094;50.972;3.538;2023-12-28T02:42:32;18.00;60.40
32706;DHT22;19094;50.972;3.538;2023-12-28T02:44:57;18.00;60.30
32706;DHT22;19094;50.972;3.538;2023-12-28T02:47:23;18.00;60.50
32706;DHT22;19094;50.972;3.538;2023-12-28T02:49:48;18.00;60.60
32706;DHT22;19094;50.972;3.538;2023-12-28T02:52:14;18.00;60.40
32706;DHT22;19094;50.972;3.538;2023-12-28T02:54:40;17.90;60.40
32706;DHT22;19094;50.972;3.538;2023-12-28T02:57:05;17.90;60.60
32706;DHT22;19094;50.972;3.538;2023-12-28T02:59:31;17.90;60.50
32706;DHT22;19094;50.972;3.538;2023-12-28T03:01:57;17.80;60.70
32706;DHT22;19094;50.972;3.538;2023-12-28T03:04:22;17.90;60.80
32706;DHT22;19094;50.972;3.538;2023-12-28T03:06:48;17.90;60.70
32706;DHT22;19094;50.972;3.538;2023-12-28T03:09:13;17.90;60.40
32706;DHT22;19094;50.972;3.538;2023-12-28T03:11:39;18.00;60.50
32706;DHT22;19094;50.972;3.538;2023-12-28T03:14:05;17.90;60.70
32706;DHT22;19094;50.972;3.538;2023-12-28T03:16:30;18.00;61.00
32706;DHT22;19094;50.972;3.538;2023-12-28T03:18:56;18.00;60.50
32706;DHT22;19094;50.972;3.538;2023-12-28T03:21:22;18.10;60.40
32706;DHT22;19094;50.972;3.538;2023-12-28T03:23:47;18.10;60.30
32706;DHT22;19094;50.972;3.538;2023-12-28T03:26:13;18.10;60.10
32706;DHT22;19094;50.972;3.538;2023-12-28T03:28:40;18.10;60.10
32706;DHT22;19094;50.972;3.538;2023-12-28T03:31:05;18.20;60.10
32706;DHT22;19094;50.972;3.538;2023-12-28T03:33:31;18.20;60.10
32706;DHT22;19094;50.972;3.538;2023-12-28T03:35:57;18.20;60.30
32706;DHT22;19094;50.972;3.538;2023-12-28T03:38:22;18.30;59.80
32706;DHT22;19094;50.972;3.538;2023-12-28T03:40:48;18.10;59.90
32706;DHT22;19094;50.972;3.538;2023-12-28T03:43:15;18.20;60.00
32706;DHT22;19094;50.972;3.538;2023-12-28T03:45:41;18.20;60.00
32706;DHT22;19094;50.972;3.538;2023-12-28T03:48:06;18.20;60.10
32706;DHT22;19094;50.972;3.538;2023-12-28T03:50:32;18.10;60.00
32706;DHT22;19094;50.972;3.538;2023-12-28T03:52:58;18.00;61.00
32706;DHT22;19094;50.972;3.538;2023-12-28T03:55:24;18.00;60.40
32706;DHT22;19094;50.972;3.538;2023-12-28T03:57:50;18.00;60.20
32706;DHT22;19094;50.972;3.538;2023-12-28T04:00:16;18.00;60.50
32706;DHT22;19094;50.972;3.538;2023-12-28T04:02:42;18.10;60.10
32706;DHT22;19094;50.972;3.538;2023-12-28T04:05:08;18.00;60.50
32706;DHT22;19094;50.972;3.538;2023-12-28T04:07:33;17.90;60.30
32706;DHT22;19094;50.972;3.538;2023-12-28T04:09:59;17.90;60.30
32706;DHT22;19094;50.972;3.538;2023-12-28T04:12:25;17.80;60.50
32706;DHT22;19094;50.972;3.538;2023-12-28T04:14:51;17.80;60.70
32706;DHT22;19094;50.972;3.538;2023-12-28T04:17:17;17.80;60.60
32706;DHT22;19094;50.972;3.538;2023-12-28T04:19:42;17.80;60.50
32706;DHT22;19094;50.972;3.538;2023-12-28T04:22:08;17.70;60.50
32706;DHT22;19094;50.972;3.538;2023-12-28T04:24:33;17.70;60.60
32706;DHT22;19094;50.972;3.538;2023-12-28T04:26:59;17.70;60.80
32706;DHT22;19094;50.972;3.538;2023-12-28T04:29:25;17.60;60.70
32706;DHT22;19094;50.972;3.538;2023-12-28T04:31:50;17.60;60.70
32706;DHT22;19094;50.972;3.538;2023-12-28T04:34:16;17.60;60.90
32706;DHT22;19094;50.972;3.538;2023-12-28T04:36:45;17.60;60.90
32706;DHT22;19094;50.972;3.538;2023-12-28T04:39:12;17.60;61.00
32706;DHT22;19094;50.972;3.538;2023-12-28T04:41:38;17.70;61.00
32706;DHT22;19094;50.972;3.538;2023-12-28T04:44:04;17.70;60.60
32706;DHT22;19094;50.972;3.538;2023-12-28T04:46:29;17.70;60.50
32706;DHT22;19094;50.972;3.538;2023-12-28T04:48:55;17.60;60.60
32706;DHT22;19094;50.972;3.538;2023-12-28T04:51:21;17.60;60.80
32706;DHT22;19094;50.972;3.538;2023-12-28T04:53:46;17.70;60.80
32706;DHT22;19094;50.972;3.538;2023-12-28T04:56:12;17.60;60.50
32706;DHT22;19094;50.972;3.538;2023-12-28T04:58:38;17.70;60.60
32706;DHT22;19094;50.972;3.538;2023-12-28T05:01:03;17.60;60.70
32706;DHT22;19094;50.972;3.538;2023-12-28T05:03:29;17.70;60.80
32706;DHT22;19094;50.972;3.538;2023-12-28T05:05:56;17.60;60.40
32706;DHT22;19094;50.972;3.538;2023-12-28T05:08:21;17.60;60.40
32706;DHT22;19094;50.972;3.538;2023-12-28T05:10:47;17.60;60.40
32706;DHT22;19094;50.972;3.538;2023-12-28T05:13:14;17.60;60.70
32706;DHT22;19094;50.972;3.538;2023-12-28T05:15:40;17.50;60.50
32706;DHT22;19094;50.972;3.538;2023-12-28T05:18:05;17.50;60.50
32706;DHT22;19094;50.972;3.538;2023-12-28T05:20:34;17.40;60.70
32706;DHT22;19094;50.972;3.538;2023-12-28T05:23:00;17.50;60.60
32706;DHT22;19094;50.972;3.538;2023-12-28T05:25:25;17.50;60.60
32706;DHT22;19094;50.972;3.538;2023-12-28T05:27:51;17.50;61.40
32706;DHT22;19094;50.972;3.538;2023-12-28T05:30:18;17.50;60.50
32706;DHT22;19094;50.972;3.538;2023-12-28T05:32:44;17.40;60.60
32706;DHT22;19094;50.972;3.538;2023-12-28T05:35:09;17.40;60.70
32706;DHT22;19094;50.972;3.538;2023-12-28T05:37:35;17.40;61.00
32706;DHT22;19094;50.972;3.538;2023-12-28T05:40:00;17.40;60.70
32706;DHT22;19094;50.972;3.538;2023-12-28T05:42:26;17.40;60.70
32706;DHT22;19094;50.972;3.538;2023-12-28T05:44:52;17.40;61.00
32706;DHT22;19094;50.972;3.538;2023-12-28T05:47:18;17.40;60.90
32706;DHT22;19094;50.972;3.538;2023-12-28T05:49:43;17.30;61.00
32706;DHT22;19094;50.972;3.538;2023-12-28T05:52:09;17.30;61.00
32706;DHT22;19094;50.972;3.538;2023-12-28T05:54:34;17.30;61.00
32706;DHT22;19094;50.972;3.538;2023-12-28T05:57:00;17.30;61.20
32706;DHT22;19094;50.972;3.538;2023-12-28T05:59:26;17.30;61.10
32706;DHT22;19094;50.972;3.538;2023-12-28T06:01:51;17.30;61.00
32706;DHT22;19094;50.972;3.538;2023-12-28T06:04:17;17.20;61.00
32706;DHT22;19094;50.972;3.538;2023-12-28T06:06:43;17.20;61.00
32706;DHT22;19094;50.972;3.538;2023-12-28T06:09:08;17.20;61.00
32706;DHT22;19094;50.972;3.538;2023-12-28T06:11:34;17.20;61.00
32706;DHT22;19094;50.972;3.538;2023-12-28T06:14:00;17.20;61.00
32706;DHT22;19094;50.972;3.538;2023-12-28T06:16:25;17.20;61.00
32706;DHT22;19094;50.972;3.538;2023-12-28T06:18:51;17.20;61.00
32706;DHT22;19094;50.972;3.538;2023-12-28T06:21:17;17.20;61.00
32706;DHT22;19094;50.972;3.538;2023-12-28T06:23:42;17.20;61.70
32706;DHT22;19094;50.972;3.538;2023-12-28T06:26:08;17.20;61.00
32706;DHT22;19094;50.972;3.538;2023-12-28T06:28:33;17.20;60.70
32706;DHT22;19094;50.972;3.538;2023-12-28T06:30:59;17.20;60.70
32706;DHT22;19094;50.972;3.538;2023-12-28T06:33:27;17.20;60.90
32706;DHT22;19094;50.972;3.538;2023-12-28T06:35:54;17.20;60.90
32706;DHT22;19094;50.972;3.538;2023-12-28T06:38:20;17.20;60.80
32706;DHT22;19094;50.972;3.538;2023-12-28T06:40:46;17.20;60.90
32706;DHT22;19094;50.972;3.538;2023-12-28T06:43:11;17.20;60.80
32706;DHT22;19094;50.972;3.538;2023-12-28T06:45:37;17.20;60.70
32706;DHT22;19094;50.972;3.538;2023-12-28T06:48:04;17.10;60.90
32706;DHT22;19094;50.972;3.538;2023-12-28T06:50:30;17.10;60.80
32706;DHT22;19094;50.972;3.538;2023-12-28T06:52:57;17.00;61.20
32706;DHT22;19094;50.972;3.538;2023-12-28T06:55:24;17.00;61.00
32706;DHT22;19094;50.972;3.538;2023-12-28T06:57:50;17.00;61.10
32706;DHT22;19094;50.972;3.538;2023-12-28T07:00:16;17.10;61.10
32706;DHT22;19094;50.972;3.538;2023-12-28T07:02:42;17.00;61.00
32706;DHT22;19094;50.972;3.538;2023-12-28T07:05:07;17.00;60.80
32706;DHT22;19094;50.972;3.538;2023-12-28T07:07:33;16.90;61.10
32706;DHT22;19094;50.972;3.538;2023-12-28T07:09:59;17.00;61.20
32706;DHT22;19094;50.972;3.538;2023-12-28T07:12:24;17.00;60.90
32706;DHT22;19094;50.972;3.538;2023-12-28T07:14:50;17.00;60.80
32706;DHT22;19094;50.972;3.538;2023-12-28T07:17:16;17.00;60.80
32706;DHT22;19094;50.972;3.538;2023-12-28T07:19:43;16.90;60.90
32706;DHT22;19094;50.972;3.538;2023-12-28T07:22:08;17.00;61.00
32706;DHT22;19094;50.972;3.538;2023-12-28T07:24:35;17.00;60.90
32706;DHT22;19094;50.972;3.538;2023-12-28T07:27:02;17.00;60.90
32706;DHT22;19094;50.972;3.538;2023-12-28T07:29:27;16.90;60.60
32706;DHT22;19094;50.972;3.538;2023-12-28T07:31:53;16.80;60.90
32706;DHT22;19094;50.972;3.538;2023-12-28T07:34:19;16.80;61.00
32706;DHT22;19094;50.972;3.538;2023-12-28T07:36:45;16.80;60.80
32706;DHT22;19094;50.972;3.538;2023-12-28T07:39:11;16.80;61.00
32706;DHT22;19094;50.972;3.538;2023-12-28T07:41:38;16.90;60.80
32706;DHT22;19094;50.972;3.538;2023-12-28T07:44:03;16.90;60.60
32706;DHT22;19094;50.972;3.538;2023-12-28T07:46:30;16.80;60.90
32706;DHT22;19094;50.972;3.538;2023-12-28T07:48:55;16.90;60.80
32706;DHT22;19094;50.972;3.538;2023-12-28T07:51:21;16.80;61.00
32706;DHT22;19094;50.972;3.538;2023-12-28T07:53:47;16.80;60.80
32706;DHT22;19094;50.972;3.538;2023-12-28T07:56:13;16.70;60.80
32706;DHT22;19094;50.972;3.538;2023-12-28T07:58:39;16.80;61.00
32706;DHT22;19094;50.972;3.538;2023-12-28T08:01:10;16.70;61.00
32706;DHT22;19094;50.972;3.538;2023-12-28T08:03:36;16.70;60.90
32706;DHT22;19094;50.972;3.538;2023-12-28T08:06:02;16.70;60.80
32706;DHT22;19094;50.972;3.538;2023-12-28T08:08:27;16.60;61.00
32706;DHT22;19094;50.972;3.538;2023-12-28T08:10:54;16.70;61.00
32706;DHT22;19094;50.972;3.538;2023-12-28T08:13:20;16.70;61.00
32706;DHT22;19094;50.972;3.538;2023-12-28T08:15:46;16.70;61.10
32706;DHT22;19094;50.972;3.538;2023-12-28T08:18:12;16.70;61.30
32706;DHT22;19094;50.972;3.538;2023-12-28T08:20:38;16.70;61.30
32706;DHT22;19094;50.972;3.538;2023-12-28T08:23:03;16.70;61.30
32706;DHT22;19094;50.972;3.538;2023-12-28T08:25:29;16.60;61.20
32706;DHT22;19094;50.972;3.538;2023-12-28T08:27:55;16.60;61.20
32706;DHT22;19094;50.972;3.538;2023-12-28T08:30:20;16.60;61.30
32706;DHT22;19094;50.972;3.538;2023-12-28T08:32:46;16.60;62.10
32706;DHT22;19094;50.972;3.538;2023-12-28T08:35:13;16.60;61.50
32706;DHT22;19094;50.972;3.538;2023-12-28T08:37:38;16.60;61.30
32706;DHT22;19094;50.972;3.538;2023-12-28T08:40:05;16.60;61.30
32706;DHT22;19094;50.972;3.538;2023-12-28T08:42:31;16.50;61.50
32706;DHT22;19094;50.972;3.538;2023-12-28T08:44:56;16.60;61.40
32706;DHT22;19094;50.972;3.538;2023-12-28T08:47:22;16.60;61.60
32706;DHT22;19094;50.972;3.538;2023-12-28T08:49:48;16.60;61.40
32706;DHT22;19094;50.972;3.538;2023-12-28T08:52:14;16.60;61.40
32706;DHT22;19094;50.972;3.538;2023-12-28T08:54:40;16.60;61.30
32706;DHT22;19094;50.972;3.538;2023-12-28T08:57:06;16.60;61.50
32706;DHT22;19094;50.972;3.538;2023-12-28T08:59:36;16.60;61.40
32706;DHT22;19094;50.972;3.538;2023-12-28T09:02:01;16.60;61.20
32706;DHT22;19094;50.972;3.538;2023-12-28T09:04:27;16.60;61.60
32706;DHT22;19094;50.972;3.538;2023-12-28T09:06:53;16.60;61.40
32706;DHT22;19094;50.972;3.538;2023-12-28T09:09:18;16.50;61.50
32706;DHT22;19094;50.972;3.538;2023-12-28T09:11:44;16.50;61.50
32706;DHT22;19094;50.972;3.538;2023-12-28T09:14:10;16.50;61.60
32706;DHT22;19094;50.972;3.538;2023-12-28T09:16:35;16.50;61.50
32706;DHT22;19094;50.972;3.538;2023-12-28T09:19:01;16.50;61.80
32706;DHT22;19094;50.972;3.538;2023-12-28T09:21:27;16.40;61.60
32706;DHT22;19094;50.972;3.538;2023-12-28T09:23:52;16.50;61.60
32706;DHT22;19094;50.972;3.538;2023-12-28T09:26:18;16.60;61.30
32706;DHT22;19094;50.972;3.538;2023-12-28T09:28:44;16.40;61.50
32706;DHT22;19094;50.972;3.538;2023-12-28T09:31:10;16.50;61.60
32706;DHT22;19094;50.972;3.538;2023-12-28T09:33:36;16.50;61.60
32706;DHT22;19094;50.972;3.538;2023-12-28T09:36:05;16.40;61.60
32706;DHT22;19094;50.972;3.538;2023-12-28T09:38:31;16.50;61.60
32706;DHT22;19094;50.972;3.538;2023-12-28T09:40:58;16.50;61.60
32706;DHT22;19094;50.972;3.538;2023-12-28T09:43:35;16.50;61.40
32706;DHT22;19094;50.972;3.538;2023-12-28T09:46:07;16.50;61.60
32706;DHT22;19094;50.972;3.538;2023-12-28T09:48:37;16.40;61.40
32706;DHT22;19094;50.972;3.538;2023-12-28T09:51:06;16.40;61.60
32706;DHT22;19094;50.972;3.538;2023-12-28T09:53:32;16.40;61.70
32706;DHT22;19094;50.972;3.538;2023-12-28T09:55:57;16.40;61.60
32706;DHT22;19094;50.972;3.538;2023-12-28T09:58:25;16.40;61.60
32706;DHT22;19094;50.972;3.538;2023-12-28T10:00:55;16.50;61.60
32706;DHT22;19094;50.972;3.538;2023-12-28T10:03:37;16.40;61.40
32706;DHT22;19094;50.972;3.538;2023-12-28T10:06:04;16.40;61.70
32706;DHT22;19094;50.972;3.538;2023-12-28T10:08:33;16.40;61.50
32706;DHT22;19094;50.972;3.538;2023-12-28T10:11:24;16.40;61.60
32706;DHT22;19094;50.972;3.538;2023-12-28T10:13:50;16.40;61.50
32706;DHT22;19094;50.972;3.538;2023-12-28T10:16:16;16.40;61.50
32706;DHT22;19094;50.972;3.538;2023-12-28T10:18:43;16.50;61.60
32706;DHT22;19094;50.972;3.538;2023-12-28T10:21:09;16.50;61.60
32706;DHT22;19094;50.972;3.538;2023-12-28T10:23:35;16.50;61.30
32706;DHT22;19094;50.972;3.538;2023-12-28T10:26:04;16.50;61.30
32706;DHT22;19094;50.972;3.538;2023-12-28T10:28:48;16.60;61.20
32706;DHT22;19094;50.972;3.538;2023-12-28T10:31:15;16.60;61.20
32706;DHT22;19094;50.972;3.538;2023-12-28T10:33:41;16.50;61.30
32706;DHT22;19094;50.972;3.538;2023-12-28T10:36:21;16.50;61.20
32706;DHT22;19094;50.972;3.538;2023-12-28T10:39:35;16.50;61.50
32706;DHT22;19094;50.972;3.538;2023-12-28T10:42:04;16.50;61.30
32706;DHT22;19094;50.972;3.538;2023-12-28T10:44:42;16.50;61.20
32706;DHT22;19094;50.972;3.538;2023-12-28T10:47:19;16.50;61.30
32706;DHT22;19094;50.972;3.538;2023-12-28T10:50:13;16.50;61.30
32706;DHT22;19094;50.972;3.538;2023-12-28T10:52:42;16.40;61.20
32706;DHT22;19094;50.972;3.538;2023-12-28T10:58:01;16.50;61.60
32706;DHT22;19094;50.972;3.538;2023-12-28T11:00:33;16.50;61.60
32706;DHT22;19094;50.972;3.538;2023-12-28T11:03:03;16.50;61.30
32706;DHT22;19094;50.972;3.538;2023-12-28T11:05:32;16.50;61.40
32706;DHT22;19094;50.972;3.538;2023-12-28T11:07:59;16.50;61.40
32706;DHT22;19094;50.972;3.538;2023-12-28T11:10:27;16.50;61.40
32706;DHT22;19094;50.972;3.538;2023-12-28T11:12:56;16.50;61.30
32706;DHT22;19094;50.972;3.538;2023-12-28T11:15:23;16.60;61.40
32706;DHT22;19094;50.972;3.538;2023-12-28T11:17:50;16.60;61.30
32706;DHT22;19094;50.972;3.538;2023-12-28T11:20:16;16.60;61.30
32706;DHT22;19094;50.972;3.538;2023-12-28T11:22:42;16.50;61.10
32706;DHT22;19094;50.972;3.538;2023-12-28T11:25:18;16.50;61.20
32706;DHT22;19094;50.972;3.538;2023-12-28T11:27:47;16.50;61.20
32706;DHT22;19094;50.972;3.538;2023-12-28T11:30:13;16.60;61.30
32706;DHT22;19094;50.972;3.538;2023-12-28T11:32:44;16.60;61.00
32706;DHT22;19094;50.972;3.538;2023-12-28T11:35:12;16.60;61.50
32706;DHT22;19094;50.972;3.538;2023-12-28T11:37:44;16.60;61.10
32706;DHT22;19094;50.972;3.538;2023-12-28T11:40:13;16.60;60.90
32706;DHT22;19094;50.972;3.538;2023-12-28T11:42:53;16.70;61.00
32706;DHT22;19094;50.972;3.538;2023-12-28T11:45:22;16.60;60.70
32706;DHT22;19094;50.972;3.538;2023-12-28T11:48:04;16.60;61.00
32706;DHT22;19094;50.972;3.538;2023-12-28T11:50:29;16.60;60.70
32706;DHT22;19094;50.972;3.538;2023-12-28T11:52:55;16.60;60.90
32706;DHT22;19094;50.972;3.538;2023-12-28T11:55:22;16.60;60.70
32706;DHT22;19094;50.972;3.538;2023-12-28T11:57:48;16.50;60.80
32706;DHT22;19094;50.972;3.538;2023-12-28T12:00:14;16.60;60.70
32706;DHT22;19094;50.972;3.538;2023-12-28T12:02:43;16.60;61.00
32706;DHT22;19094;50.972;3.538;2023-12-28T12:05:10;16.60;62.00
32706;DHT22;19094;50.972;3.538;2023-12-28T12:07:37;16.50;61.10
32706;DHT22;19094;50.972;3.538;2023-12-28T12:10:03;16.60;61.20
32706;DHT22;19094;50.972;3.538;2023-12-28T12:12:28;16.60;61.10
32706;DHT22;19094;50.972;3.538;2023-12-28T12:14:54;16.60;60.90
32706;DHT22;19094;50.972;3.538;2023-12-28T12:17:21;16.60;60.90
32706;DHT22;19094;50.972;3.538;2023-12-28T12:19:47;16.70;60.70
32706;DHT22;19094;50.972;3.538;2023-12-28T12:22:16;16.60;60.80
32706;DHT22;19094;50.972;3.538;2023-12-28T12:24:46;16.60;60.80
32706;DHT22;19094;50.972;3.538;2023-12-28T12:27:13;16.60;60.50
32706;DHT22;19094;50.972;3.538;2023-12-28T12:29:39;16.60;60.70
32706;DHT22;19094;50.972;3.538;2023-12-28T12:32:04;16.60;60.80
32706;DHT22;19094;50.972;3.538;2023-12-28T12:34:33;16.60;60.80
32706;DHT22;19094;50.972;3.538;2023-12-28T12:36:59;16.60;61.00
32706;DHT22;19094;50.972;3.538;2023-12-28T12:39:25;16.60;60.70
32706;DHT22;19094;50.972;3.538;2023-12-28T12:41:51;16.50;60.90
32706;DHT22;19094;50.972;3.538;2023-12-28T12:44:19;16.60;60.80
32706;DHT22;19094;50.972;3.538;2023-12-28T12:46:46;16.50;60.50
32706;DHT22;19094;50.972;3.538;2023-12-28T12:49:11;16.50;60.70
32706;DHT22;19094;50.972;3.538;2023-12-28T12:51:38;16.40;60.70
32706;DHT22;19094;50.972;3.538;2023-12-28T12:54:04;16.40;60.80
32706;DHT22;19094;50.972;3.538;2023-12-28T12:56:30;16.50;60.80
32706;DHT22;19094;50.972;3.538;2023-12-28T12:58:57;16.40;60.90
32706;DHT22;19094;50.972;3.538;2023-12-28T13:01:23;16.50;60.70
32706;DHT22;19094;50.972;3.538;2023-12-28T13:03:50;16.50;60.50
32706;DHT22;19094;50.972;3.538;2023-12-28T13:06:16;16.50;60.60
32706;DHT22;19094;50.972;3.538;2023-12-28T13:08:42;16.40;60.70
32706;DHT22;19094;50.972;3.538;2023-12-28T13:11:10;16.40;60.80
32706;DHT22;19094;50.972;3.538;2023-12-28T13:13:36;16.40;60.50
32706;DHT22;19094;50.972;3.538;2023-12-28T13:16:02;16.40;60.50
32706;DHT22;19094;50.972;3.538;2023-12-28T13:18:28;16.40;60.50
32706;DHT22;19094;50.972;3.538;2023-12-28T13:20:54;16.40;60.70
32706;DHT22;19094;50.972;3.538;2023-12-28T13:23:19;16.40;60.50
32706;DHT22;19094;50.972;3.538;2023-12-28T13:25:46;16.40;60.50
32706;DHT22;19094;50.972;3.538;2023-12-28T13:28:12;16.40;60.70
32706;DHT22;19094;50.972;3.538;2023-12-28T13:30:38;16.40;60.40
32706;DHT22;19094;50.972;3.538;2023-12-28T13:33:04;16.40;60.80
32706;DHT22;19094;50.972;3.538;2023-12-28T13:35:31;16.40;60.80
32706;DHT22;19094;50.972;3.538;2023-12-28T13:37:59;16.30;60.80
32706;DHT22;19094;50.972;3.538;2023-12-28T13:40:25;16.30;60.70
32706;DHT22;19094;50.972;3.538;2023-12-28T13:42:51;16.30;60.70
32706;DHT22;19094;50.972;3.538;2023-12-28T13:45:16;16.30;60.80
32706;DHT22;19094;50.972;3.538;2023-12-28T13:47:42;16.30;60.60
32706;DHT22;19094;50.972;3.538;2023-12-28T13:50:08;16.30;60.60
32706;DHT22;19094;50.972;3.538;2023-12-28T13:52:35;16.30;60.60
32706;DHT22;19094;50.972;3.538;2023-12-28T13:55:00;16.30;60.50
32706;DHT22;19094;50.972;3.538;2023-12-28T13:57:26;16.30;62.90
32706;DHT22;19094;50.972;3.538;2023-12-28T13:59:52;16.30;61.70
32706;DHT22;19094;50.972;3.538;2023-12-28T14:02:17;16.30;61.50
32706;DHT22;19094;50.972;3.538;2023-12-28T14:04:43;16.20;61.20
32706;DHT22;19094;50.972;3.538;2023-12-28T14:07:09;16.20;61.10
32706;DHT22;19094;50.972;3.538;2023-12-28T14:09:34;16.20;61.00
32706;DHT22;19094;50.972;3.538;2023-12-28T14:12:01;16.20;60.90
32706;DHT22;19094;50.972;3.538;2023-12-28T14:14:27;16.30;60.80
32706;DHT22;19094;50.972;3.538;2023-12-28T14:16:52;16.20;60.80
32706;DHT22;19094;50.972;3.538;2023-12-28T14:19:18;16.20;60.70
32706;DHT22;19094;50.972;3.538;2023-12-28T14:21:44;16.20;60.80
32706;DHT22;19094;50.972;3.538;2023-12-28T14:24:10;16.20;60.80
32706;DHT22;19094;50.972;3.538;2023-12-28T14:26:40;16.20;60.50
32706;DHT22;19094;50.972;3.538;2023-12-28T14:29:10;16.20;60.70
32706;DHT22;19094;50.972;3.538;2023-12-28T14:31:36;16.10;60.60
32706;DHT22;19094;50.972;3.538;2023-12-28T14:34:02;16.10;60.80
32706;DHT22;19094;50.972;3.538;2023-12-28T14:36:33;16.20;60.60
32706;DHT22;19094;50.972;3.538;2023-12-28T14:39:00;16.20;60.70
32706;DHT22;19094;50.972;3.538;2023-12-28T14:41:26;16.20;61.90
32706;DHT22;19094;50.972;3.538;2023-12-28T14:43:52;16.20;62.20
32706;DHT22;19094;50.972;3.538;2023-12-28T14:46:19;16.20;64.10
32706;DHT22;19094;50.972;3.538;2023-12-28T14:48:47;16.20;65.40
32706;DHT22;19094;50.972;3.538;2023-12-28T14:51:12;16.20;66.70
32706;DHT22;19094;50.972;3.538;2023-12-28T14:53:41;16.30;65.10
32706;DHT22;19094;50.972;3.538;2023-12-28T14:56:07;16.20;64.30
32706;DHT22;19094;50.972;3.538;2023-12-28T14:58:33;16.10;64.00
32706;DHT22;19094;50.972;3.538;2023-12-28T15:01:08;16.20;64.10
32706;DHT22;19094;50.972;3.538;2023-12-28T15:03:35;16.20;63.60
32706;DHT22;19094;50.972;3.538;2023-12-28T15:06:04;16.30;64.10
32706;DHT22;19094;50.972;3.538;2023-12-28T15:08:30;16.30;62.30
32706;DHT22;19094;50.972;3.538;2023-12-28T15:10:56;16.20;61.80
32706;DHT22;19094;50.972;3.538;2023-12-28T15:13:22;16.10;62.30
32706;DHT22;19094;50.972;3.538;2023-12-28T15:15:49;16.10;62.10
32706;DHT22;19094;50.972;3.538;2023-12-28T15:18:16;16.10;61.90
32706;DHT22;19094;50.972;3.538;2023-12-28T15:20:46;16.10;62.20
32706;DHT22;19094;50.972;3.538;2023-12-28T15:23:13;16.10;62.00
32706;DHT22;19094;50.972;3.538;2023-12-28T15:25:39;16.10;62.10
32706;DHT22;19094;50.972;3.538;2023-12-28T15:28:05;16.10;61.80
32706;DHT22;19094;50.972;3.538;2023-12-28T15:30:31;16.00;61.60
32706;DHT22;19094;50.972;3.538;2023-12-28T15:32:56;16.10;61.80